Time;durP1;ratioP1;P1;durP2;ratioP2;P2;SDS_P1;SDS_P2;PMS_P1;PMS_P2;Temp;Humidity;BMP_temperature;BMP_pressure;BME280_temperature;BME280_humidity;BME280_pressure;Samples;Min_cycle;Max_cycle;Signal;HPM_P1;HPM_P2
2023/08/02 00:09:42;;;;;;;0.15;0.15;;;;;;;;;;6226540;22;20005;-87
2023/08/02 00:12:40;;;;;;;0.20;0.20;;;;;;;;;;6240108;22;20003;-88
2023/08/02 00:22:11;;;;;;;0.10;0.10;;;;;;;;;;6239870;22;20030;-88
2023/08/02 00:28:02;;;;;;;0.10;0.10;;;;;;;;;;6250204;22;20032;-87
2023/08/02 00:30:37;;;;;;;0.10;0.10;;;;;;;;;;6208814;23;20031;-86
2023/08/02 01:08:34;;;;;;;0.15;0.15;;;;;;;;;;6233120;22;20071;-87
2023/08/02 01:11:15;;;;;;;0.10;0.10;;;;;;;;;;6193412;22;20023;-88
2023/08/02 01:13:46;;;;;;;0.10;0.10;;;;;;;;;;6192689;22;20050;-87
2023/08/02 01:16:12;;;;;;;0.00;0.00;;;;;;;;;;6192634;22;20023;-86
2023/08/02 01:18:38;;;;;;;0.20;0.20;;;;;;;;;;6193825;22;20048;-86
2023/08/02 01:21:32;;;;;;;0.10;0.10;;;;;;;;;;6212125;22;20013;-86
2023/08/02 01:24:30;;;;;;;0.20;0.20;;;;;;;;;;6221685;22;20043;-87
2023/08/02 01:27:01;;;;;;;0.13;0.13;;;;;;;;;;6199233;22;20004;-86
2023/08/02 01:29:54;;;;;;;0.20;0.20;;;;;;;;;;6238852;22;20004;-88
2023/08/02 01:32:21;;;;;;;0.10;0.10;;;;;;;;;;6202222;22;20023;-86
2023/08/02 01:34:52;;;;;;;0.10;0.10;;;;;;;;;;6208583;22;20012;-87
2023/08/02 01:37:22;;;;;;;0.05;0.05;;;;;;;;;;6214610;22;20017;-85
2023/08/02 01:39:48;;;;;;;0.10;0.10;;;;;;;;;;6195289;22;20048;-88
2023/08/02 01:45:47;;;;;;;0.25;0.25;;;;;;;;;;6249654;22;20016;-88
2023/08/02 01:48:58;;;;;;;0.20;0.20;;;;;;;;;;6240043;22;20009;-87
2023/08/02 01:51:41;;;;;;;0.10;0.10;;;;;;;;;;6229796;22;20026;-86
2023/08/02 01:58:11;;;;;;;0.10;0.10;;;;;;;;;;6250338;22;20007;-87
2023/08/02 02:01:04;;;;;;;0.20;0.20;;;;;;;;;;6249983;22;20012;-87
2023/08/02 02:04:00;;;;;;;0.05;0.05;;;;;;;;;;6276948;22;20050;-86
2023/08/02 02:06:41;;;;;;;0.20;0.20;;;;;;;;;;6304334;22;20048;-87
2023/08/02 02:09:28;;;;;;;0.20;0.20;;;;;;;;;;6237216;22;20005;-88
2023/08/02 02:15:06;;;;;;;0.10;0.10;;;;;;;;;;6249036;22;20090;-87
2023/08/02 02:36:33;;;;;;;0.10;0.10;;;;;;;;;;6197263;22;20050;-87
2023/08/02 02:39:49;;;;;;;0.13;0.13;;;;;;;;;;6236077;22;20050;-88
2023/08/02 03:06:29;;;;;;;0.10;0.10;;;;;;;;;;6201308;22;20046;-89
2023/08/02 03:08:55;;;;;;;0.13;0.13;;;;;;;;;;6199440;22;20019;-89
2023/08/02 03:11:21;;;;;;;0.15;0.15;;;;;;;;;;6200286;22;20017;-90
2023/08/02 03:13:47;;;;;;;0.10;0.10;;;;;;;;;;6201293;22;20019;-90
2023/08/02 03:16:29;;;;;;;0.15;0.15;;;;;;;;;;6207496;22;20017;-88
2023/08/02 03:42:47;;;;;;;0.08;0.08;;;;;;;;;;6159764;22;20017;-88
2023/08/02 03:45:22;;;;;;;0.03;0.03;;;;;;;;;;6212842;22;20048;-88
2023/08/02 04:06:19;;;;;;;0.17;0.17;;;;;;;;;;6192762;22;20084;-89
2023/08/02 04:08:45;;;;;;;0.10;0.10;;;;;;;;;;6107222;22;20032;-87
2023/08/02 04:16:23;;;;;;;0.08;0.08;;;;;;;;;;6227514;22;20020;-89
2023/08/02 04:24:00;;;;;;;0.10;0.10;;;;;;;;;;6207781;22;20016;-88
2023/08/02 04:26:27;;;;;;;0.10;0.10;;;;;;;;;;6182330;22;20004;-87
2023/08/02 04:28:56;;;;;;;0.10;0.10;;;;;;;;;;6199563;22;20756;-88
2023/08/02 04:52:09;;;;;;;0.10;0.10;;;;;;;;;;6204094;22;20238;-89
2023/08/02 05:04:58;;;;;;;0.05;0.05;;;;;;;;;;6211567;22;20031;-89
2023/08/02 05:07:24;;;;;;;0.20;0.20;;;;;;;;;;6203233;22;20032;-88
2023/08/02 05:09:50;;;;;;;0.30;0.30;;;;;;;;;;6203465;22;20017;-89
2023/08/02 05:12:16;;;;;;;0.20;0.20;;;;;;;;;;6203032;22;20496;-89
2023/08/02 05:14:42;;;;;;;0.10;0.10;;;;;;;;;;6202601;22;20017;-88
2023/08/02 05:17:09;;;;;;;0.15;0.15;;;;;;;;;;6202310;22;20016;-89
2023/08/02 05:19:35;;;;;;;0.17;0.17;;;;;;;;;;6202594;22;20016;-88
2023/08/02 05:22:01;;;;;;;0.10;0.10;;;;;;;;;;6203155;22;20023;-88
2023/08/02 05:24:27;;;;;;;0.00;0.00;;;;;;;;;;6202847;22;20072;-89
2023/08/02 05:26:53;;;;;;;0.20;0.20;;;;;;;;;;6202143;22;20017;-89
2023/08/02 05:29:19;;;;;;;0.10;0.10;;;;;;;;;;6201113;22;20016;-89
2023/08/02 05:39:33;;;;;;;0.08;0.08;;;;;;;;;;6199038;22;20024;-89
2023/08/02 05:41:59;;;;;;;0.10;0.10;;;;;;;;;;6205507;22;20049;-88
2023/08/02 05:47:00;;;;;;;0.20;0.20;;;;;;;;;;6173634;23;20021;-88
2023/08/02 06:25:54;;;;;;;0.05;0.05;;;;;;;;;;6204042;22;20092;-89
2023/08/02 06:28:20;;;;;;;0.10;0.10;;;;;;;;;;6204683;22;20016;-90
2023/08/02 06:33:21;;;;;;;0.25;0.25;;;;;;;;;;6177835;23;20023;-91
2023/08/02 06:51:22;;;;;;;0.10;0.10;;;;;;;;;;6251237;22;20016;-93
2023/08/02 07:14:35;;;;;;;0.10;0.10;;;;;;;;;;6218477;22;20033;-85
2023/08/02 07:17:01;;;;;;;0.03;0.03;;;;;;;;;;6210113;22;20034;-87
2023/08/02 07:19:32;;;;;;;0.10;0.10;;;;;;;;;;6213045;22;20016;-89
2023/08/02 07:22:00;;;;;;;0.20;0.20;;;;;;;;;;6209634;22;20068;-86
2023/08/02 07:24:31;;;;;;;0.10;0.10;;;;;;;;;;6234960;22;20024;-86
2023/08/02 07:26:57;;;;;;;0.20;0.20;;;;;;;;;;6210992;22;20020;-87
2023/08/02 07:29:26;;;;;;;0.10;0.10;;;;;;;;;;6248256;22;20044;-88
2023/08/02 07:31:54;;;;;;;0.15;0.15;;;;;;;;;;6194909;22;20012;-90
2023/08/02 07:37:02;;;;;;;0.10;0.10;;;;;;;;;;6246930;22;20048;-90
2023/08/02 07:39:29;;;;;;;0.17;0.17;;;;;;;;;;6240403;22;19999;-91
2023/08/02 07:42:03;;;;;;;0.00;0.00;;;;;;;;;;6247151;22;20039;-88
2023/08/02 07:44:34;;;;;;;0.17;0.17;;;;;;;;;;6200690;22;20035;-91
2023/08/02 07:47:00;;;;;;;0.03;0.03;;;;;;;;;;6215755;22;20408;-91
2023/08/02 07:49:32;;;;;;;0.10;0.10;;;;;;;;;;6213050;23;20041;-90
2023/08/02 07:52:10;;;;;;;0.25;0.25;;;;;;;;;;6191624;22;20011;-90
2023/08/02 07:54:40;;;;;;;0.10;0.10;;;;;;;;;;6240346;22;20093;-91
2023/08/02 07:57:06;;;;;;;0.25;0.25;;;;;;;;;;6211373;22;20004;-90
2023/08/02 07:59:44;;;;;;;0.10;0.10;;;;;;;;;;6233654;23;20041;-90
2023/08/02 08:02:10;;;;;;;0.20;0.20;;;;;;;;;;6236303;22;20478;-91
2023/08/02 08:04:36;;;;;;;0.10;0.10;;;;;;;;;;6212836;22;20034;-90
2023/08/02 08:07:06;;;;;;;0.20;0.20;;;;;;;;;;6210380;22;20043;-89
2023/08/02 08:09:33;;;;;;;0.10;0.10;;;;;;;;;;6210879;22;20451;-89
2023/08/02 08:12:02;;;;;;;0.10;0.10;;;;;;;;;;6210851;22;20008;-90
2023/08/02 08:14:29;;;;;;;0.10;0.10;;;;;;;;;;6233589;23;20017;-86
2023/08/02 08:16:56;;;;;;;0.10;0.10;;;;;;;;;;6208879;22;20020;-86
2023/08/02 08:19:25;;;;;;;0.20;0.20;;;;;;;;;;6215943;22;20041;-88
2023/08/02 08:21:51;;;;;;;0.10;0.10;;;;;;;;;;6212145;22;20028;-87
2023/08/02 08:24:18;;;;;;;0.10;0.10;;;;;;;;;;6212915;22;20020;-91
2023/08/02 08:26:47;;;;;;;0.10;0.10;;;;;;;;;;6234451;22;20028;-88
2023/08/02 08:29:13;;;;;;;0.20;0.20;;;;;;;;;;6205264;22;20330;-89
2023/08/02 08:31:39;;;;;;;0.10;0.10;;;;;;;;;;6205223;22;20022;-95
2023/08/02 08:34:05;;;;;;;0.10;0.10;;;;;;;;;;6207600;22;20016;-90
2023/08/02 08:36:32;;;;;;;0.20;0.20;;;;;;;;;;6216859;22;20008;-88
2023/08/02 08:38:59;;;;;;;0.15;0.15;;;;;;;;;;6314322;22;20019;-89
2023/08/02 08:51:52;;;;;;;0.13;0.13;;;;;;;;;;6222059;22;20068;-89
2023/08/02 08:54:23;;;;;;;0.10;0.10;;;;;;;;;;6185220;22;20013;-90
2023/08/02 08:56:49;;;;;;;0.20;0.20;;;;;;;;;;6208300;23;20035;-87
2023/08/02 08:59:16;;;;;;;0.10;0.10;;;;;;;;;;6208096;22;20089;-91
2023/08/02 09:01:45;;;;;;;0.20;0.20;;;;;;;;;;6231472;22;20009;-88
2023/08/02 09:15:06;;;;;;;0.20;0.20;;;;;;;;;;6238575;22;20121;-89
2023/08/02 09:17:59;;;;;;;0.13;0.13;;;;;;;;;;6317361;22;20044;-92
2023/08/02 09:20:27;;;;;;;0.20;0.20;;;;;;;;;;6224872;22;20016;-94
2023/08/02 09:35:57;;;;;;;0.20;0.20;;;;;;;;;;6220890;22;19943;-87
2023/08/02 10:13:14;;;;;;;0.05;0.05;;;;;;;;;;6208773;22;20028;-93
2023/08/02 10:21:03;;;;;;;0.10;0.10;;;;;;;;;;6197944;22;20036;-93
2023/08/02 10:31:35;;;;;;;0.20;0.20;;;;;;;;;;6200073;22;20023;-93
2023/08/02 10:34:03;;;;;;;0.10;0.10;;;;;;;;;;6215380;22;20008;-90
2023/08/02 10:36:49;;;;;;;0.10;0.10;;;;;;;;;;6249243;22;20055;-95
2023/08/02 10:39:48;;;;;;;0.20;0.20;;;;;;;;;;6242163;22;20016;-91
2023/08/02 10:42:15;;;;;;;0.10;0.10;;;;;;;;;;6217272;22;20032;-92
2023/08/02 10:45:13;;;;;;;0.10;0.10;;;;;;;;;;6218965;22;20055;-90
2023/08/02 10:47:43;;;;;;;0.10;0.10;;;;;;;;;;6201313;22;20004;-91
2023/08/02 10:58:05;;;;;;;0.00;0.00;;;;;;;;;;6192161;22;20018;-94
2023/08/02 11:00:39;;;;;;;0.20;0.20;;;;;;;;;;6241146;22;20005;-87
2023/08/02 11:03:05;;;;;;;0.10;0.10;;;;;;;;;;6240073;22;20004;-88
2023/08/02 11:05:39;;;;;;;0.10;0.10;;;;;;;;;;6206567;22;20076;-92
2023/08/02 11:13:23;;;;;;;0.10;0.10;;;;;;;;;;6265362;22;20016;-90
2023/08/02 11:16:03;;;;;;;0.08;0.08;;;;;;;;;;6219483;22;20047;-91
2023/08/02 11:18:40;;;;;;;0.10;0.10;;;;;;;;;;6175648;22;20016;-91
2023/08/02 11:21:25;;;;;;;0.05;0.05;;;;;;;;;;6212456;22;20005;-92
2023/08/02 11:23:52;;;;;;;;;;;;;;;;;;6208801;22;20000;-90
2023/08/02 11:26:22;;;;;;;0.10;0.10;;;;;;;;;;6266718;22;19971;-91
2023/08/02 11:28:52;;;;;;;0.10;0.10;;;;;;;;;;6241196;22;20000;-91
2023/08/02 11:31:25;;;;;;;0.10;0.10;;;;;;;;;;6267589;22;20017;-88
2023/08/02 11:33:54;;;;;;;0.10;0.10;;;;;;;;;;6243427;22;20020;-90
2023/08/02 11:41:39;;;;;;;0.10;0.10;;;;;;;;;;6247634;22;20020;-89
2023/08/02 11:51:53;;;;;;;0.10;0.10;;;;;;;;;;6253087;22;20041;-91
2023/08/02 11:54:22;;;;;;;0.10;0.10;;;;;;;;;;6219172;22;20003;-90
2023/08/02 11:56:51;;;;;;;0.13;0.13;;;;;;;;;;6242427;23;20030;-90
2023/08/02 11:59:28;;;;;;;0.10;0.10;;;;;;;;;;6218555;23;20020;-90
2023/08/02 12:02:00;;;;;;;0.10;0.10;;;;;;;;;;6219059;22;20008;-89
2023/08/02 12:04:37;;;;;;;0.10;0.10;;;;;;;;;;6216994;22;20042;-87
2023/08/02 12:07:04;;;;;;;0.20;0.20;;;;;;;;;;6241384;23;20071;-87
2023/08/02 12:09:48;;;;;;;0.10;0.10;;;;;;;;;;6211048;23;20023;-87
2023/08/02 12:12:17;;;;;;;0.08;0.08;;;;;;;;;;6190352;23;20026;-86
2023/08/02 12:14:43;;;;;;;0.03;0.03;;;;;;;;;;6242169;23;20028;-88
2023/08/02 12:17:17;;;;;;;0.10;0.10;;;;;;;;;;6216350;23;20021;-89
2023/08/02 12:19:45;;;;;;;0.10;0.10;;;;;;;;;;6214676;23;20016;-89
2023/08/02 12:22:11;;;;;;;0.10;0.10;;;;;;;;;;6217046;22;20011;-91
2023/08/02 12:24:37;;;;;;;0.10;0.10;;;;;;;;;;6216256;23;20012;-86
2023/08/02 12:29:40;;;;;;;0.10;0.10;;;;;;;;;;6263401;22;20128;-90
2023/08/02 12:34:47;;;;;;;0.03;0.03;;;;;;;;;;6249317;22;20031;-89
2023/08/02 12:37:13;;;;;;;0.08;0.08;;;;;;;;;;6218552;22;20008;-91
2023/08/02 12:39:41;;;;;;;0.00;0.00;;;;;;;;;;6243178;22;20024;-91
2023/08/02 12:42:07;;;;;;;0.10;0.10;;;;;;;;;;6217030;22;20020;-93
2023/08/02 12:44:35;;;;;;;0.00;0.00;;;;;;;;;;6258736;22;20019;-93
2023/08/02 12:47:05;;;;;;;0.03;0.03;;;;;;;;;;6245423;22;20004;-90
2023/08/02 12:49:35;;;;;;;0.10;0.10;;;;;;;;;;6203856;22;20000;-89
2023/08/02 13:20:35;;;;;;;0.10;0.10;;;;;;;;;;6239536;22;20046;-89
2023/08/02 13:23:04;;;;;;;0.10;0.10;;;;;;;;;;6217809;22;20008;-89
2023/08/02 13:54:04;;;;;;;0.00;0.00;;;;;;;;;;6216002;22;20107;-84
2023/08/02 13:59:09;;;;;;;0.00;0.00;;;;;;;;;;6228144;22;20016;-85
2023/08/02 14:01:35;;;;;;;0.10;0.10;;;;;;;;;;6211691;22;20028;-86
2023/08/02 14:06:58;;;;;;;0.10;0.10;;;;;;;;;;6228658;22;20021;-85
2023/08/02 14:09:28;;;;;;;0.10;0.10;;;;;;;;;;6316211;22;20008;-86
2023/08/02 14:14:31;;;;;;;0.10;0.10;;;;;;;;;;6231850;22;20016;-86
2023/08/02 14:17:02;;;;;;;0.10;0.10;;;;;;;;;;6239225;23;20011;-83
2023/08/02 14:19:28;;;;;;;0.05;0.05;;;;;;;;;;6213578;22;20028;-84
2023/08/02 14:22:14;;;;;;;0.05;0.05;;;;;;;;;;6235105;22;20023;-83
2023/08/02 14:24:44;;;;;;;0.00;0.00;;;;;;;;;;6213461;22;20011;-85
2023/08/02 14:27:17;;;;;;;0.00;0.00;;;;;;;;;;6239958;22;20050;-83
2023/08/02 14:29:46;;;;;;;0.10;0.10;;;;;;;;;;6213181;22;20072;-86
2023/08/02 14:32:12;;;;;;;0.10;0.10;;;;;;;;;;6213031;22;20026;-86
2023/08/02 14:34:38;;;;;;;0.10;0.10;;;;;;;;;;6211960;22;20025;-85
2023/08/02 14:37:06;;;;;;;0.10;0.10;;;;;;;;;;6210630;23;20042;-86
2023/08/02 14:39:39;;;;;;;0.10;0.10;;;;;;;;;;6314724;22;20068;-85
2023/08/02 14:42:14;;;;;;;0.00;0.00;;;;;;;;;;6238402;22;20086;-85
2023/08/02 14:44:43;;;;;;;0.13;0.13;;;;;;;;;;6234418;22;20016;-86
2023/08/02 14:47:12;;;;;;;0.00;0.00;;;;;;;;;;6212300;22;20043;-83
2023/08/02 14:49:39;;;;;;;0.20;0.20;;;;;;;;;;6210873;22;20012;-86
2023/08/02 14:52:05;;;;;;;0.00;0.00;;;;;;;;;;6210743;22;20012;-84
2023/08/02 14:54:34;;;;;;;0.03;0.03;;;;;;;;;;6208725;22;20013;-85
2023/08/02 14:57:00;;;;;;;0.00;0.00;;;;;;;;;;6210553;22;20023;-84
2023/08/02 14:59:26;;;;;;;0.10;0.10;;;;;;;;;;6209612;22;20004;-84
2023/08/02 15:01:56;;;;;;;0.20;0.20;;;;;;;;;;6206376;23;20011;-84
2023/08/02 15:04:22;;;;;;;0.10;0.10;;;;;;;;;;6211168;22;20040;-85
2023/08/02 15:06:53;;;;;;;0.00;0.00;;;;;;;;;;6237505;22;20024;-84
2023/08/02 15:09:20;;;;;;;0.00;0.00;;;;;;;;;;6213583;22;20009;-86
2023/08/02 15:11:52;;;;;;;0.10;0.10;;;;;;;;;;6213231;22;20013;-85
2023/08/02 15:14:18;;;;;;;0.10;0.10;;;;;;;;;;6210154;22;20053;-85
2023/08/02 15:16:47;;;;;;;0.03;0.03;;;;;;;;;;6210978;23;20025;-86
2023/08/02 15:19:17;;;;;;;0.10;0.10;;;;;;;;;;6212607;22;20004;-86
2023/08/02 15:21:45;;;;;;;0.17;0.17;;;;;;;;;;6251868;22;20030;-86
2023/08/02 15:24:22;;;;;;;0.10;0.10;;;;;;;;;;6212341;22;20023;-85
2023/08/02 15:26:48;;;;;;;0.13;0.13;;;;;;;;;;6238034;22;20020;-85
2023/08/02 15:29:17;;;;;;;0.10;0.10;;;;;;;;;;6212444;22;20009;-86
2023/08/02 15:31:43;;;;;;;0.20;0.20;;;;;;;;;;6313830;22;20011;-86
2023/08/02 15:34:25;;;;;;;0.10;0.10;;;;;;;;;;6211036;22;20021;-86
2023/08/02 15:36:56;;;;;;;0.08;0.08;;;;;;;;;;6210540;22;20005;-86
2023/08/02 15:42:02;;;;;;;0.10;0.10;;;;;;;;;;6169738;22;20012;-86
2023/08/02 15:47:08;;;;;;;0.10;0.10;;;;;;;;;;6208633;22;20020;-83
2023/08/02 15:49:34;;;;;;;0.10;0.10;;;;;;;;;;6212953;22;20021;-85
2023/08/02 15:52:04;;;;;;;0.10;0.10;;;;;;;;;;6210876;22;20012;-87
2023/08/02 15:54:35;;;;;;;0.10;0.10;;;;;;;;;;6210781;22;20013;-85
2023/08/02 15:57:21;;;;;;;0.00;0.00;;;;;;;;;;6232320;22;20016;-85
2023/08/02 15:59:58;;;;;;;0.10;0.10;;;;;;;;;;6238538;22;20009;-87
2023/08/02 16:02:27;;;;;;;0.10;0.10;;;;;;;;;;6238846;22;20000;-85
2023/08/02 16:04:54;;;;;;;0.10;0.10;;;;;;;;;;6209664;23;20016;-86
2023/08/02 16:07:20;;;;;;;0.20;0.20;;;;;;;;;;6212815;22;20013;-86
2023/08/02 16:09:48;;;;;;;0.10;0.10;;;;;;;;;;6315622;22;20030;-89
2023/08/02 16:30:26;;;;;;;0.10;0.10;;;;;;;;;;6220370;22;20032;-87
2023/08/02 16:33:17;;;;;;;0.10;0.10;;;;;;;;;;6214596;22;20020;-86
2023/08/02 16:49:06;;;;;;;0.10;0.10;;;;;;;;;;6192380;22;20121;-86
2023/08/02 16:51:51;;;;;;;0.10;0.10;;;;;;;;;;6239641;22;20042;-86
2023/08/02 16:54:28;;;;;;;0.15;0.15;;;;;;;;;;6247228;22;20119;-86
2023/08/02 16:57:09;;;;;;;0.00;0.00;;;;;;;;;;6248650;22;20004;-84
2023/08/02 17:04:51;;;;;;;0.20;0.20;;;;;;;;;;6210600;23;20024;-89
2023/08/02 17:07:24;;;;;;;0.05;0.05;;;;;;;;;;6213634;22;20060;-88
2023/08/02 17:10:20;;;;;;;0.15;0.15;;;;;;;;;;6256082;22;20036;-86
2023/08/02 17:15:35;;;;;;;0.30;0.30;;;;;;;;;;6208341;22;20025;-86
2023/08/02 17:18:11;;;;;;;0.05;0.05;;;;;;;;;;6188813;22;20025;-86
2023/08/02 17:20:38;;;;;;;0.10;0.10;;;;;;;;;;6342219;22;20020;-87
2023/08/02 17:23:09;;;;;;;0.10;0.10;;;;;;;;;;6239099;22;20023;-86
2023/08/02 17:25:36;;;;;;;0.10;0.10;;;;;;;;;;6189215;22;20093;-86
2023/08/02 17:28:05;;;;;;;0.00;0.00;;;;;;;;;;6209252;22;20040;-84
2023/08/02 17:30:32;;;;;;;0.00;0.00;;;;;;;;;;6213154;22;20004;-86
2023/08/02 17:33:00;;;;;;;0.00;0.00;;;;;;;;;;6212029;22;20005;-84
2023/08/02 17:35:33;;;;;;;0.10;0.10;;;;;;;;;;6242725;22;20035;-85
2023/08/02 17:38:03;;;;;;;0.10;0.10;;;;;;;;;;6235428;22;20044;-85
2023/08/02 17:43:07;;;;;;;0.15;0.15;;;;;;;;;;6232113;22;20035;-86
2023/08/02 17:45:36;;;;;;;0.13;0.13;;;;;;;;;;6189542;22;20055;-84
2023/08/02 17:48:13;;;;;;;0.00;0.00;;;;;;;;;;6215097;22;20025;-86
2023/08/02 17:53:21;;;;;;;0.05;0.05;;;;;;;;;;6230504;22;20059;-88
2023/08/02 17:56:00;;;;;;;0.10;0.10;;;;;;;;;;6209862;22;20049;-87
2023/08/02 17:58:33;;;;;;;0.10;0.10;;;;;;;;;;6209173;22;20024;-89
2023/08/02 18:01:14;;;;;;;0.00;0.00;;;;;;;;;;6213585;22;20024;-90
2023/08/02 18:09:46;;;;;;;0.00;0.00;;;;;;;;;;6165984;22;20245;-89
2023/08/02 18:12:38;;;;;;;0.05;0.05;;;;;;;;;;6239606;22;20005;-88
2023/08/02 18:15:06;;;;;;;0.10;0.10;;;;;;;;;;6218497;22;20020;-88
2023/08/02 18:35:45;;;;;;;0.10;0.10;;;;;;;;;;6220069;22;20234;-87
2023/08/02 18:38:11;;;;;;;0.10;0.10;;;;;;;;;;6211822;22;20083;-88
2023/08/02 18:45:49;;;;;;;0.00;0.00;;;;;;;;;;6184915;22;20225;-90
2023/08/02 19:26:30;;;;;;;0.10;0.10;;;;;;;;;;6239842;22;20008;-91
2023/08/02 19:47:14;;;;;;;0.10;0.10;;;;;;;;;;6268291;22;20051;-91
2023/08/02 19:55:11;;;;;;;0.10;0.10;;;;;;;;;;6265650;22;20032;-91
2023/08/02 20:02:51;;;;;;;0.10;0.10;;;;;;;;;;6181313;22;20004;-91
2023/08/02 20:57:25;;;;;;;0.10;0.10;;;;;;;;;;6220659;22;20013;-90
2023/08/02 20:59:54;;;;;;;0.10;0.10;;;;;;;;;;6256253;22;20009;-90
2023/08/02 21:02:36;;;;;;;0.20;0.20;;;;;;;;;;6237028;22;20016;-89
2023/08/02 21:05:04;;;;;;;0.20;0.20;;;;;;;;;;6235724;22;20029;-91
2023/08/02 21:20:48;;;;;;;0.10;0.10;;;;;;;;;;6217563;22;20060;-88
2023/08/02 21:23:21;;;;;;;0.10;0.10;;;;;;;;;;6312375;22;20007;-88
2023/08/02 21:26:00;;;;;;;0.10;0.10;;;;;;;;;;6205289;22;20088;-87
2023/08/02 21:28:31;;;;;;;0.05;0.05;;;;;;;;;;6301433;22;20043;-86
2023/08/02 21:31:04;;;;;;;0.10;0.10;;;;;;;;;;6272448;22;19999;-86
2023/08/02 21:33:36;;;;;;;0.10;0.10;;;;;;;;;;6249550;22;20024;-87
2023/08/02 21:36:03;;;;;;;0.00;0.00;;;;;;;;;;6274875;22;20014;-88
2023/08/02 21:38:30;;;;;;;0.10;0.10;;;;;;;;;;6278342;22;20042;-86
2023/08/02 21:41:02;;;;;;;0.10;0.10;;;;;;;;;;6250231;22;20023;-86
2023/08/02 21:48:50;;;;;;;0.13;0.13;;;;;;;;;;6226971;22;20020;-87
2023/08/02 21:51:22;;;;;;;0.10;0.10;;;;;;;;;;6340712;22;20018;-87
2023/08/02 21:54:04;;;;;;;0.15;0.15;;;;;;;;;;6213906;22;20026;-86
2023/08/02 21:56:48;;;;;;;0.17;0.17;;;;;;;;;;6217601;23;20017;-84
2023/08/02 21:59:18;;;;;;;0.10;0.10;;;;;;;;;;6237857;22;20082;-86
2023/08/02 22:02:16;;;;;;;0.10;0.10;;;;;;;;;;6188497;22;20024;-85
2023/08/02 22:05:10;;;;;;;0.10;0.10;;;;;;;;;;6213327;23;20052;-88
2023/08/02 22:12:56;;;;;;;0.20;0.20;;;;;;;;;;6231191;22;20029;-86
2023/08/02 22:15:25;;;;;;;0.10;0.10;;;;;;;;;;6239533;22;20048;-87
2023/08/02 22:17:53;;;;;;;0.10;0.10;;;;;;;;;;6214031;22;20011;-86
2023/08/02 22:20:20;;;;;;;0.13;0.13;;;;;;;;;;6211693;22;20060;-88
2023/08/02 22:23:04;;;;;;;0.10;0.10;;;;;;;;;;6213720;23;20007;-86
2023/08/02 22:25:39;;;;;;;0.10;0.10;;;;;;;;;;6293231;22;20052;-87
2023/08/02 22:28:09;;;;;;;0.10;0.10;;;;;;;;;;6315074;22;20008;-87
2023/08/02 22:30:43;;;;;;;0.10;0.10;;;;;;;;;;6290116;22;20028;-87
2023/08/02 22:36:19;;;;;;;0.10;0.10;;;;;;;;;;6236733;22;20032;-86
2023/08/02 22:39:07;;;;;;;0.10;0.10;;;;;;;;;;6239537;22;20011;-86
2023/08/02 22:41:47;;;;;;;0.10;0.10;;;;;;;;;;6210338;23;20033;-87
2023/08/02 22:44:15;;;;;;;0.05;0.05;;;;;;;;;;6213356;22;20016;-87
2023/08/02 22:46:53;;;;;;;0.10;0.10;;;;;;;;;;6316464;22;20025;-86
2023/08/02 22:49:31;;;;;;;0.10;0.10;;;;;;;;;;6214126;22;20072;-86
2023/08/02 22:52:14;;;;;;;0.20;0.20;;;;;;;;;;6212525;23;20005;-85
2023/08/02 22:54:44;;;;;;;0.10;0.10;;;;;;;;;;6235651;22;20009;-86
2023/08/02 23:14:09;;;;;;;0.10;0.10;;;;;;;;;;6280306;22;20015;-86
2023/08/02 23:20:30;;;;;;;0.00;0.00;;;;;;;;;;6268766;22;20028;-85
2023/08/02 23:23:03;;;;;;;0.10;0.10;;;;;;;;;;6243842;23;20024;-86
2023/08/02 23:30:47;;;;;;;0.30;0.30;;;;;;;;;;6242490;22;20046;-86
2023/08/02 23:36:24;;;;;;;0.10;0.10;;;;;;;;;;6281601;22;20026;-86
